YVR weather

Vancouver International Airport
Vancouver, British Columbia, Canada

Public forecast

Using degrees Celsius for public forecast. Weather courtesy of forecast.io.

METAR (pilot weather report)

Retrieved 2017/12/10 22:00 UTC (58 minutes ago):

CYVR 102200Z 30005KT 15SM FEW008 BKN110 BKN220 07/06 A3039 RMK SF1AC5CI1 SLP292

TAF (pilot weather forecast)

Retrieved 2017/12/10 21:42 UTC (1 hour ago):

TAF CYVR 102038Z 1021/1124 29005KT P6SM FEW008 SCT090 FM102200 29010KT P6SM FEW100 FM110400 29008KT P6SM FEW005 PROB30 1104/1109 3/4SM BR BKN005 FM110900 10005KT P6SM FEW002 PROB40 1109/1118 1/4SM FG VV002 FM111800 10005KT P6SM FEW005 RMK NXT FCST BY 110000Z